Time;durP1;ratioP1;P1;durP2;ratioP2;P2;SDS_P1;SDS_P2;PMS_P1;PMS_P2;Temp;Humidity;BMP_temperature;BMP_pressure;BME280_temperature;BME280_humidity;BME280_pressure;Samples;Min_cycle;Max_cycle;Signal;HPM_P1;HPM_P2
2023/12/09 00:01:20;;;;;;;29.20;4.75;;;9.90;99.90;;;;;;5146831;27;20087;-51
2023/12/09 00:03:46;;;;;;;25.55;3.97;;;9.90;99.90;;;;;;5147263;27;20027;-51
2023/12/09 00:06:11;;;;;;;30.40;4.13;;;9.90;99.90;;;;;;5147290;27;20099;-51
2023/12/09 00:08:37;;;;;;;23.25;4.10;;;9.90;99.90;;;;;;5145966;27;20047;-50
2023/12/09 00:11:03;;;;;;;23.65;3.95;;;9.90;99.90;;;;;;5147005;27;20027;-50
2023/12/09 00:13:30;;;;;;;24.02;3.60;;;9.90;99.90;;;;;;5147042;27;20043;-50
2023/12/09 00:15:56;;;;;;;22.33;4.03;;;9.90;99.90;;;;;;5147054;27;20019;-51
2023/12/09 00:18:21;;;;;;;26.30;4.10;;;9.90;99.90;;;;;;5147040;27;20034;-51
2023/12/09 00:20:47;;;;;;;26.00;3.78;;;9.90;99.90;;;;;;5146584;27;20034;-51
2023/12/09 00:23:13;;;;;;;23.25;3.22;;;9.90;99.90;;;;;;5147165;27;20140;-51
2023/12/09 00:25:39;;;;;;;24.38;3.97;;;9.90;99.90;;;;;;5146917;27;20072;-51
2023/12/09 00:28:04;;;;;;;24.83;3.80;;;9.90;99.90;;;;;;5128836;28;20027;-51
2023/12/09 00:30:30;;;;;;;20.33;2.80;;;9.90;99.90;;;;;;5147035;27;20276;-51
2023/12/09 00:32:56;;;;;;;23.55;3.70;;;9.90;99.90;;;;;;5146578;27;20084;-51
2023/12/09 00:35:21;;;;;;;21.13;3.17;;;9.80;99.90;;;;;;5146537;27;20031;-51
2023/12/09 00:37:47;;;;;;;27.63;4.88;;;9.80;99.90;;;;;;5146790;28;20019;-51
2023/12/09 00:40:13;;;;;;;22.30;3.53;;;9.80;99.90;;;;;;5146298;27;20023;-51
2023/12/09 00:42:38;;;;;;;28.63;3.45;;;9.80;99.90;;;;;;5146823;27;20058;-51
2023/12/09 00:45:05;;;;;;;27.77;3.38;;;9.80;99.90;;;;;;5146713;28;20023;-50
2023/12/09 00:47:31;;;;;;;24.67;3.75;;;9.80;99.90;;;;;;5146777;27;20026;-51
2023/12/09 00:49:56;;;;;;;27.88;4.47;;;9.80;99.90;;;;;;5146935;28;20094;-51
2023/12/09 00:52:22;;;;;;;33.78;3.80;;;9.80;99.90;;;;;;5145726;28;20238;-48
2023/12/09 00:54:48;;;;;;;30.45;4.10;;;9.80;99.90;;;;;;5146271;28;20030;-47
2023/12/09 00:57:14;;;;;;;27.90;4.00;;;9.80;99.90;;;;;;5146606;28;20156;-46
2023/12/09 00:59:40;;;;;;;23.25;3.50;;;9.90;99.90;;;;;;5145564;28;20076;-46
2023/12/09 01:02:05;;;;;;;24.40;4.40;;;9.90;99.90;;;;;;5146683;28;20175;-47
2023/12/09 01:04:31;;;;;;;30.15;3.78;;;9.90;99.90;;;;;;5146557;28;20030;-47
2023/12/09 01:06:57;;;;;;;24.88;3.83;;;9.90;99.90;;;;;;5146008;28;20043;-48
2023/12/09 01:09:22;;;;;;;23.70;3.58;;;10.00;99.90;;;;;;5145342;28;20090;-51
2023/12/09 01:11:48;;;;;;;23.30;4.35;;;10.00;99.90;;;;;;5146470;28;20107;-47
2023/12/09 01:14:14;;;;;;;23.15;4.75;;;10.00;99.90;;;;;;5146545;28;20034;-50
2023/12/09 01:16:40;;;;;;;19.55;3.38;;;10.00;99.90;;;;;;5146533;28;20337;-50
2023/12/09 01:19:06;;;;;;;15.45;3.20;;;10.00;99.90;;;;;;5145228;28;20027;-50
2023/12/09 01:21:32;;;;;;;23.20;3.67;;;10.00;99.90;;;;;;5146234;28;20189;-49
2023/12/09 01:23:57;;;;;;;23.88;4.65;;;10.00;99.90;;;;;;5146313;28;20026;-49
2023/12/09 01:26:23;;;;;;;20.55;3.35;;;10.10;99.90;;;;;;5146361;28;20061;-49
2023/12/09 01:28:49;;;;;;;19.77;3.55;;;10.10;99.90;;;;;;5146033;28;20023;-49
2023/12/09 01:31:14;;;;;;;17.30;3.53;;;10.10;99.90;;;;;;5146291;28;20041;-49
2023/12/09 01:33:40;;;;;;;21.73;3.40;;;10.10;99.90;;;;;;5146097;28;20035;-50
2023/12/09 01:36:06;;;;;;;27.90;3.88;;;10.10;99.90;;;;;;5146320;28;20180;-50
2023/12/09 01:38:32;;;;;;;29.83;4.32;;;10.10;99.90;;;;;;5146238;27;20072;-49
2023/12/09 01:40:57;;;;;;;32.00;4.30;;;10.10;99.90;;;;;;5145968;28;20072;-49
2023/12/09 01:43:23;;;;;;;33.25;4.07;;;10.10;99.90;;;;;;5145996;28;20034;-47
2023/12/09 01:45:53;;;;;;;29.95;4.50;;;10.00;99.90;;;;;;5146111;28;20023;-50
2023/12/09 01:48:19;;;;;;;27.40;3.67;;;10.00;99.90;;;;;;5145291;28;20031;-49
2023/12/09 01:50:45;;;;;;;26.08;3.55;;;10.00;99.90;;;;;;5146131;28;20050;-50
2023/12/09 01:53:11;;;;;;;22.63;3.25;;;10.00;99.90;;;;;;5147976;27;20180;-49
2023/12/09 01:55:37;;;;;;;17.55;4.13;;;10.00;99.90;;;;;;5149415;27;20046;-49
2023/12/09 01:58:03;;;;;;;24.67;3.17;;;10.00;99.90;;;;;;5148808;27;20023;-50
2023/12/09 02:00:29;;;;;;;28.88;3.83;;;10.00;99.90;;;;;;5148689;27;20195;-47
2023/12/09 02:02:55;;;;;;;21.95;3.63;;;10.00;99.90;;;;;;5149589;27;20031;-50
2023/12/09 02:05:21;;;;;;;17.73;3.28;;;10.00;99.90;;;;;;5149716;27;20084;-46
2023/12/09 02:07:46;;;;;;;9.68;1.88;;;10.00;99.90;;;;;;5148317;27;20212;-46
2023/12/09 02:10:12;;;;;;;9.00;1.52;;;9.90;99.90;;;;;;5149617;27;20031;-46
2023/12/09 02:12:48;;;;;;;10.15;2.33;;;9.80;99.90;;;;;;5149070;27;20047;-49
2023/12/09 02:15:25;;;;;;;14.07;2.17;;;9.60;99.90;;;;;;5148428;27;20239;-49
2023/12/09 02:18:02;;;;;;;8.30;1.63;;;9.60;99.90;;;;;;5149585;27;20023;-49
2023/12/09 02:20:28;;;;;;;9.85;1.60;;;9.50;99.90;;;;;;5148470;27;20034;-52
2023/12/09 02:23:12;;;;;;;10.60;1.45;;;9.50;99.90;;;;;;5130995;27;20285;-51
2023/12/09 02:25:39;;;;;;;3.17;0.82;;;9.40;99.90;;;;;;5149215;27;20139;-51
2023/12/09 02:28:27;;;;;;;5.97;1.27;;;9.40;99.90;;;;;;5131175;27;20055;-49
2023/12/09 02:31:14;;;;;;;4.70;1.15;;;9.40;99.90;;;;;;5149179;27;20034;-49
2023/12/09 02:33:43;;;;;;;10.45;1.38;;;9.40;99.90;;;;;;5148165;27;20098;-48
2023/12/09 02:36:10;;;;;;;9.73;1.30;;;9.40;99.90;;;;;;5149159;27;20192;-48
2023/12/09 02:38:37;;;;;;;6.05;1.20;;;9.40;99.90;;;;;;5148112;27;20058;-48
2023/12/09 02:41:03;;;;;;;7.63;1.23;;;9.30;99.90;;;;;;5147892;27;20180;-48
2023/12/09 02:43:29;;;;;;;9.90;1.70;;;9.40;99.90;;;;;;5148438;27;20023;-49
2023/12/09 02:45:55;;;;;;;8.05;1.92;;;9.30;99.90;;;;;;5148024;27;20019;-51
2023/12/09 02:48:22;;;;;;;4.68;1.10;;;9.30;99.90;;;;;;5148874;27;20034;-51
2023/12/09 02:50:49;;;;;;;6.93;1.65;;;9.30;99.90;;;;;;5147598;27;20035;-49
2023/12/09 02:53:15;;;;;;;6.63;1.55;;;9.30;99.90;;;;;;5148465;27;20188;-49
2023/12/09 02:55:40;;;;;;;7.63;1.55;;;9.20;99.90;;;;;;5148784;27;20012;-49
2023/12/09 02:58:06;;;;;;;7.07;1.67;;;9.30;99.90;;;;;;5148709;27;20177;-49
2023/12/09 03:00:32;;;;;;;6.30;1.42;;;9.30;99.90;;;;;;5148576;27;20031;-48
2023/12/09 03:02:57;;;;;;;5.45;1.60;;;9.30;99.90;;;;;;5148385;27;20023;-49
2023/12/09 03:05:23;;;;;;;8.18;1.33;;;9.30;99.90;;;;;;5148073;27;20030;-49
2023/12/09 03:07:49;;;;;;;7.45;1.30;;;9.20;99.90;;;;;;5147938;27;20055;-49
2023/12/09 03:10:14;;;;;;;3.40;1.23;;;9.20;99.90;;;;;;5148460;27;20173;-46
2023/12/09 03:12:40;;;;;;;3.13;1.00;;;9.20;99.90;;;;;;5147914;27;20026;-47
2023/12/09 03:15:06;;;;;;;4.07;0.95;;;9.20;99.90;;;;;;5147792;27;20035;-47
2023/12/09 03:17:36;;;;;;;2.65;0.90;;;9.20;99.90;;;;;;5148266;27;20019;-47
2023/12/09 03:20:03;;;;;;;4.80;1.00;;;9.20;99.90;;;;;;5148114;27;20053;-49
2023/12/09 03:22:29;;;;;;;2.88;0.80;;;9.20;99.90;;;;;;5148105;27;20226;-46
2023/12/09 03:24:55;;;;;;;1.80;0.80;;;9.20;99.90;;;;;;5148054;27;20280;-49
2023/12/09 03:27:21;;;;;;;2.60;0.73;;;9.20;99.90;;;;;;5147866;27;20034;-49
2023/12/09 03:29:46;;;;;;;2.70;0.77;;;9.30;99.90;;;;;;5147941;27;20057;-50
2023/12/09 03:32:12;;;;;;;2.00;0.75;;;9.30;99.90;;;;;;5146988;27;20103;-50
2023/12/09 03:34:38;;;;;;;2.65;0.80;;;9.30;99.90;;;;;;5146807;27;20039;-50
2023/12/09 03:37:03;;;;;;;1.40;0.77;;;9.30;99.90;;;;;;5147664;27;20038;-49
2023/12/09 03:39:29;;;;;;;4.72;0.70;;;9.30;99.90;;;;;;5147683;27;20164;-50
2023/12/09 03:41:55;;;;;;;1.45;0.60;;;9.30;99.90;;;;;;5146889;27;20027;-46
2023/12/09 03:44:21;;;;;;;2.05;0.70;;;9.30;99.90;;;;;;5147779;27;20052;-49
2023/12/09 03:46:46;;;;;;;0.73;0.68;;;9.30;99.90;;;;;;5147639;27;20062;-49
2023/12/09 03:49:12;;;;;;;2.20;0.70;;;9.30;99.90;;;;;;5147215;27;20031;-50
2023/12/09 03:51:37;;;;;;;1.55;0.68;;;9.40;99.90;;;;;;5146537;27;20027;-50
2023/12/09 03:54:03;;;;;;;1.58;0.70;;;9.40;99.90;;;;;;5146426;27;20023;-49
2023/12/09 03:56:29;;;;;;;1.48;0.65;;;9.40;99.90;;;;;;5146465;27;20058;-49
2023/12/09 03:58:55;;;;;;;1.23;0.80;;;9.40;99.90;;;;;;5147635;27;20032;-47
2023/12/09 04:01:24;;;;;;;4.18;0.70;;;9.50;99.90;;;;;;5147384;27;20033;-49
2023/12/09 04:03:50;;;;;;;1.85;0.60;;;9.50;99.90;;;;;;5147333;27;20027;-50
2023/12/09 04:06:16;;;;;;;3.10;0.70;;;9.50;99.90;;;;;;5147349;27;20027;-49
2023/12/09 04:08:41;;;;;;;3.22;0.70;;;9.60;99.90;;;;;;5146831;27;20055;-50
2023/12/09 04:11:07;;;;;;;0.68;0.60;;;9.60;99.90;;;;;;5147421;27;20114;-50
2023/12/09 04:13:32;;;;;;;0.77;0.52;;;9.60;99.90;;;;;;5147045;27;20046;-50
2023/12/09 04:15:58;;;;;;;3.75;0.70;;;9.60;99.90;;;;;;5145226;27;20015;-50
2023/12/09 04:18:24;;;;;;;1.95;0.65;;;9.70;99.90;;;;;;5145829;27;20327;-50
2023/12/09 04:20:50;;;;;;;2.60;0.60;;;9.60;99.90;;;;;;5147056;27;20027;-49
2023/12/09 04:23:15;;;;;;;0.75;0.65;;;9.60;99.90;;;;;;5146903;27;20035;-50
2023/12/09 04:25:41;;;;;;;0.60;0.60;;;9.60;99.90;;;;;;5146974;27;20041;-50
2023/12/09 04:28:07;;;;;;;3.75;0.95;;;9.60;99.90;;;;;;5147085;27;20038;-48
2023/12/09 04:30:33;;;;;;;1.55;0.65;;;9.50;99.90;;;;;;5147026;27;20019;-46
2023/12/09 04:32:59;;;;;;;0.50;0.50;;;9.50;99.90;;;;;;5146805;27;20069;-47
2023/12/09 04:35:25;;;;;;;1.88;0.63;;;9.60;99.90;;;;;;5146141;27;20090;-47
2023/12/09 04:37:50;;;;;;;0.80;0.50;;;9.60;99.90;;;;;;5146946;27;20015;-47
2023/12/09 04:40:17;;;;;;;1.65;0.50;;;9.60;99.90;;;;;;5146895;27;20071;-47
2023/12/09 04:42:42;;;;;;;1.73;0.68;;;9.60;99.90;;;;;;5145586;28;20027;-51
2023/12/09 04:45:09;;;;;;;2.80;0.80;;;9.60;99.90;;;;;;5146762;28;20084;-50
2023/12/09 04:47:34;;;;;;;3.40;1.17;;;9.50;99.90;;;;;;5146756;28;20057;-50
2023/12/09 04:50:00;;;;;;;1.30;0.60;;;9.60;99.90;;;;;;5145576;28;20300;-50
2023/12/09 04:52:26;;;;;;;1.50;0.70;;;9.50;99.90;;;;;;5146769;28;20019;-50
2023/12/09 04:54:51;;;;;;;0.68;0.60;;;9.60;99.90;;;;;;5146627;28;20027;-50
2023/12/09 04:57:17;;;;;;;0.57;0.50;;;9.60;99.90;;;;;;5145549;28;20051;-50
2023/12/09 04:59:43;;;;;;;0.82;0.52;;;9.50;99.90;;;;;;5146612;28;20068;-50
2023/12/09 05:02:09;;;;;;;0.70;0.50;;;9.60;99.90;;;;;;5145706;28;20027;-46
2023/12/09 05:04:34;;;;;;;1.33;0.60;;;9.60;99.90;;;;;;5146723;28;21509;-46
2023/12/09 05:07:00;;;;;;;0.85;0.50;;;9.60;99.90;;;;;;5146138;28;20043;-50
2023/12/09 05:09:26;;;;;;;2.40;0.60;;;9.60;99.90;;;;;;5145666;28;20065;-50
2023/12/09 05:11:51;;;;;;;1.45;0.50;;;9.70;99.90;;;;;;5146502;28;20038;-50
2023/12/09 05:14:17;;;;;;;0.40;0.40;;;9.70;99.90;;;;;;5146523;28;20027;-50
2023/12/09 05:16:43;;;;;;;0.43;0.40;;;9.70;99.90;;;;;;5146182;28;20038;-48
2023/12/09 05:19:08;;;;;;;1.38;0.70;;;9.80;99.90;;;;;;5146250;28;20054;-51
2023/12/09 05:21:34;;;;;;;0.40;0.40;;;9.80;99.90;;;;;;5145403;28;20279;-50
2023/12/09 05:24:00;;;;;;;0.50;0.50;;;9.90;99.90;;;;;;5146595;28;20338;-50
2023/12/09 05:26:27;;;;;;;1.55;0.50;;;9.90;99.90;;;;;;5145710;27;20031;-50
2023/12/09 05:28:53;;;;;;;0.50;0.50;;;10.00;99.90;;;;;;5150339;27;20026;-49
2023/12/09 05:31:19;;;;;;;0.50;0.50;;;10.00;99.90;;;;;;5150188;27;20106;-50
2023/12/09 05:33:45;;;;;;;0.55;0.50;;;10.30;99.90;;;;;;5150184;27;20031;-50
2023/12/09 05:36:11;;;;;;;0.40;0.40;;;10.40;99.90;;;;;;5149250;27;20019;-51
2023/12/09 05:38:37;;;;;;;0.50;0.50;;;10.50;99.90;;;;;;5149106;27;20035;-51
2023/12/09 05:41:04;;;;;;;0.40;0.40;;;10.50;99.90;;;;;;5149934;27;20288;-50
2023/12/09 05:43:29;;;;;;;0.90;0.50;;;10.50;99.90;;;;;;5149925;27;20026;-47
2023/12/09 05:45:55;;;;;;;0.40;0.40;;;10.40;99.90;;;;;;5150044;27;20206;-46
2023/12/09 05:48:21;;;;;;;0.40;0.40;;;10.40;99.90;;;;;;5150069;27;20035;-50
2023/12/09 05:50:46;;;;;;;0.40;0.40;;;10.30;99.90;;;;;;5149933;27;20038;-46
2023/12/09 05:53:12;;;;;;;0.50;0.50;;;10.30;99.90;;;;;;5149892;27;20051;-47
2023/12/09 05:55:38;;;;;;;0.52;0.50;;;10.30;99.90;;;;;;5149497;27;20244;-48
2023/12/09 05:58:03;;;;;;;0.50;0.50;;;10.20;99.90;;;;;;5148623;27;20072;-47
2023/12/09 06:00:29;;;;;;;0.63;0.50;;;10.20;99.90;;;;;;5148865;27;20043;-47
2023/12/09 06:02:55;;;;;;;0.63;0.50;;;10.20;99.90;;;;;;5149491;27;20064;-47
2023/12/09 06:05:21;;;;;;;0.50;0.50;;;10.20;99.90;;;;;;5149728;27;20027;-48
2023/12/09 06:07:46;;;;;;;0.50;0.50;;;10.20;99.90;;;;;;5149324;27;20046;-46
2023/12/09 06:10:12;;;;;;;0.50;0.50;;;10.30;99.90;;;;;;5131247;27;20031;-48
2023/12/09 06:12:38;;;;;;;0.50;0.50;;;10.20;99.90;;;;;;5149172;27;20027;-48
2023/12/09 06:15:05;;;;;;;0.50;0.50;;;10.20;99.90;;;;;;5149437;27;20030;-47
2023/12/09 06:17:30;;;;;;;0.52;0.47;;;10.20;99.90;;;;;;5148377;27;20035;-47
2023/12/09 06:19:56;;;;;;;0.50;0.50;;;10.30;99.90;;;;;;5148400;27;20019;-47
2023/12/09 06:22:22;;;;;;;0.65;0.60;;;10.40;99.90;;;;;;5149416;27;20256;-48
2023/12/09 06:24:47;;;;;;;0.77;0.60;;;10.50;99.90;;;;;;5149042;27;20277;-50
2023/12/09 06:27:13;;;;;;;0.73;0.50;;;10.50;99.90;;;;;;5148740;27;20349;-50
2023/12/09 06:29:39;;;;;;;1.05;0.50;;;10.50;99.90;;;;;;5149282;27;20038;-50
2023/12/09 06:32:05;;;;;;;0.60;0.60;;;10.40;99.90;;;;;;5149253;27;20031;-49
2023/12/09 06:34:30;;;;;;;0.50;0.50;;;10.30;99.90;;;;;;5149097;27;20280;-48
2023/12/09 06:36:56;;;;;;;0.52;0.50;;;10.30;99.90;;;;;;5147897;27;20030;-48
2023/12/09 06:39:22;;;;;;;0.50;0.50;;;10.30;99.90;;;;;;5147819;27;20030;-49
2023/12/09 06:41:48;;;;;;;0.40;0.40;;;10.40;99.90;;;;;;5148499;27;20027;-50
2023/12/09 06:44:14;;;;;;;0.40;0.40;;;10.50;99.90;;;;;;5148559;27;20098;-50
2023/12/09 06:46:40;;;;;;;0.40;0.40;;;10.60;99.90;;;;;;5149017;27;20031;-50
2023/12/09 06:49:06;;;;;;;0.50;0.50;;;10.60;99.90;;;;;;5130954;27;20197;-47
2023/12/09 06:51:32;;;;;;;1.20;0.57;;;10.70;99.90;;;;;;5148717;27;20141;-47
2023/12/09 06:53:57;;;;;;;0.40;0.40;;;10.70;99.90;;;;;;5148607;27;20203;-47
2023/12/09 06:56:23;;;;;;;0.60;0.55;;;10.80;99.90;;;;;;5148753;27;20019;-48
2023/12/09 06:58:49;;;;;;;2.60;0.50;;;10.90;99.90;;;;;;5148625;27;20316;-47
2023/12/09 07:01:33;;;;;;;0.50;0.50;;;10.80;99.90;;;;;;5148780;27;20177;-47
2023/12/09 07:03:58;;;;;;;0.50;0.50;;;10.90;99.90;;;;;;5148573;27;20031;-47
2023/12/09 07:06:28;;;;;;;0.77;0.50;;;10.90;99.90;;;;;;5148552;27;20273;-47
2023/12/09 07:08:54;;;;;;;1.15;0.50;;;11.00;99.90;;;;;;5147239;27;20070;-48
2023/12/09 07:11:20;;;;;;;0.85;0.50;;;11.00;99.90;;;;;;5148346;27;20027;-47
2023/12/09 07:13:46;;;;;;;0.40;0.40;;;10.90;99.90;;;;;;5148064;27;20038;-47
2023/12/09 07:16:13;;;;;;;1.27;0.50;;;10.90;99.90;;;;;;5148335;27;20185;-47
2023/12/09 07:18:42;;;;;;;0.75;0.60;;;11.00;99.90;;;;;;5147065;27;20023;-47
2023/12/09 07:21:11;;;;;;;1.30;0.63;;;10.90;99.90;;;;;;5130771;27;20094;-47
2023/12/09 07:23:36;;;;;;;0.43;0.43;;;10.90;99.90;;;;;;5148193;27;20206;-47
2023/12/09 07:26:02;;;;;;;0.68;0.50;;;10.90;99.90;;;;;;5147195;27;20079;-47
2023/12/09 07:28:31;;;;;;;1.52;0.60;;;10.90;99.90;;;;;;5148122;27;20099;-48
2023/12/09 07:30:57;;;;;;;0.98;0.70;;;10.90;99.90;;;;;;5147280;27;20030;-47
2023/12/09 07:33:23;;;;;;;0.50;0.50;;;10.90;99.90;;;;;;5147976;27;20023;-47
2023/12/09 07:35:48;;;;;;;0.85;0.60;;;10.90;99.90;;;;;;5147966;27;20023;-47
2023/12/09 07:38:14;;;;;;;1.42;0.70;;;10.80;99.90;;;;;;5146856;27;20031;-47
2023/12/09 07:40:41;;;;;;;2.25;0.98;;;10.90;99.90;;;;;;5147810;27;20181;-47
2023/12/09 07:43:07;;;;;;;0.50;0.50;;;10.80;99.90;;;;;;5147649;27;20026;-47
2023/12/09 07:45:33;;;;;;;1.58;1.00;;;10.80;99.90;;;;;;5129325;27;20050;-47
2023/12/09 07:47:59;;;;;;;0.70;0.50;;;10.70;99.90;;;;;;5147165;27;20031;-47
2023/12/09 07:50:24;;;;;;;2.35;0.60;;;10.70;99.90;;;;;;5146489;27;20050;-47
2023/12/09 07:52:50;;;;;;;0.95;0.60;;;10.70;99.90;;;;;;5147796;27;20277;-47
2023/12/09 07:55:16;;;;;;;2.35;0.65;;;10.60;99.90;;;;;;5147361;27;20030;-47
2023/12/09 07:57:41;;;;;;;3.28;0.95;;;10.60;99.90;;;;;;5147581;27;20027;-47
2023/12/09 08:00:08;;;;;;;1.80;0.73;;;10.60;99.90;;;;;;5147614;27;20189;-47
2023/12/09 08:02:34;;;;;;;3.03;0.75;;;10.60;99.90;;;;;;5146363;27;20054;-47
2023/12/09 08:04:59;;;;;;;3.05;0.82;;;10.60;99.90;;;;;;5147197;27;20111;-47
2023/12/09 08:07:25;;;;;;;5.13;0.88;;;10.60;99.90;;;;;;5146943;27;20313;-46
2023/12/09 08:09:51;;;;;;;2.25;0.90;;;10.60;99.90;;;;;;5145993;27;20030;-47
2023/12/09 08:12:16;;;;;;;2.28;1.00;;;10.60;99.90;;;;;;5147238;27;20031;-47
2023/12/09 08:14:42;;;;;;;4.97;0.82;;;10.70;99.90;;;;;;5146973;27;20039;-47
2023/12/09 08:17:07;;;;;;;3.35;0.98;;;10.80;99.90;;;;;;5147137;27;20051;-47
2023/12/09 08:19:33;;;;;;;4.18;0.90;;;10.90;99.90;;;;;;5146611;27;20022;-47
2023/12/09 08:21:59;;;;;;;9.63;1.55;;;11.00;99.90;;;;;;5146639;27;20066;-46
2023/12/09 08:24:25;;;;;;;5.88;1.23;;;11.00;99.90;;;;;;5147025;27;20051;-50
2023/12/09 08:26:51;;;;;;;3.72;1.10;;;11.10;99.90;;;;;;5128401;27;20054;-50
2023/12/09 08:29:16;;;;;;;7.03;1.40;;;11.20;99.90;;;;;;5146701;27;20035;-50
2023/12/09 08:31:46;;;;;;;10.57;1.73;;;11.30;99.90;;;;;;5146814;27;20023;-50
2023/12/09 08:34:12;;;;;;;11.25;2.00;;;11.30;99.90;;;;;;5146407;27;20298;-50
2023/12/09 08:36:38;;;;;;;14.85;2.53;;;11.40;99.90;;;;;;5146363;27;20244;-49
2023/12/09 08:39:04;;;;;;;15.27;2.38;;;11.50;99.90;;;;;;5145851;27;20027;-50
2023/12/09 08:41:30;;;;;;;17.33;2.70;;;11.60;99.90;;;;;;5146813;28;20077;-49
2023/12/09 08:43:56;;;;;;;15.45;2.78;;;11.60;99.90;;;;;;5146625;28;20031;-49
2023/12/09 08:46:22;;;;;;;29.80;3.92;;;11.60;99.90;;;;;;5145377;28;20115;-50
2023/12/09 08:48:48;;;;;;;13.02;2.45;;;11.60;99.90;;;;;;5146845;28;20223;-50
2023/12/09 08:51:14;;;;;;;8.43;2.47;;;11.60;99.90;;;;;;5146549;28;20318;-50
2023/12/09 08:53:39;;;;;;;22.73;2.80;;;11.60;99.90;;;;;;5146193;28;20196;-50
2023/12/09 08:56:07;;;;;;;16.20;2.05;;;11.60;99.90;;;;;;5145800;28;20075;-50
2023/12/09 08:58:33;;;;;;;12.13;2.60;;;11.70;99.90;;;;;;5146473;28;20027;-51
2023/12/09 09:00:59;;;;;;;20.88;2.95;;;11.60;99.90;;;;;;5146110;27;20015;-51
2023/12/09 09:03:24;;;;;;;16.63;2.65;;;11.70;99.90;;;;;;5150247;27;20071;-49
2023/12/09 09:05:50;;;;;;;16.92;2.92;;;11.70;99.90;;;;;;5150601;27;20291;-50
2023/12/09 09:08:15;;;;;;;14.07;2.60;;;11.70;99.90;;;;;;5149933;27;20205;-49
2023/12/09 09:10:41;;;;;;;16.83;2.83;;;11.70;99.90;;;;;;5150122;27;20035;-51
2023/12/09 09:13:07;;;;;;;18.70;2.50;;;11.70;99.90;;;;;;5150411;27;20027;-51
2023/12/09 09:15:33;;;;;;;19.30;2.72;;;11.70;99.90;;;;;;5149396;27;20034;-51
2023/12/09 09:17:58;;;;;;;16.58;2.65;;;11.70;99.90;;;;;;5150306;27;20023;-50
2023/12/09 09:20:24;;;;;;;22.40;2.90;;;11.70;99.90;;;;;;5150319;27;20127;-50
2023/12/09 09:22:50;;;;;;;12.48;4.15;;;11.70;99.90;;;;;;5149128;27;20034;-48
2023/12/09 09:25:16;;;;;;;14.90;2.40;;;11.70;99.90;;;;;;5150046;27;20086;-48
2023/12/09 09:27:41;;;;;;;15.02;3.08;;;11.70;99.90;;;;;;5150052;27;20031;-50
2023/12/09 09:30:07;;;;;;;15.05;2.45;;;11.70;99.90;;;;;;5149181;27;20027;-48
2023/12/09 09:32:33;;;;;;;20.98;2.72;;;11.70;99.90;;;;;;5149149;27;20027;-49
2023/12/09 09:34:59;;;;;;;11.02;2.45;;;11.70;99.90;;;;;;5150014;27;20054;-48
2023/12/09 09:37:24;;;;;;;15.07;2.35;;;12.00;99.90;;;;;;5148881;27;20039;-50
2023/12/09 09:39:50;;;;;;;16.80;2.88;;;12.00;99.90;;;;;;5149587;27;20023;-48
2023/12/09 09:42:18;;;;;;;15.57;4.22;;;11.90;99.90;;;;;;5149321;27;20024;-50
2023/12/09 09:44:50;;;;;;;14.27;1.98;;;11.90;99.90;;;;;;5148383;27;20241;-50
2023/12/09 09:47:15;;;;;;;8.13;1.58;;;11.90;99.90;;;;;;5149013;27;20031;-50
2023/12/09 09:49:41;;;;;;;4.53;1.30;;;11.90;99.90;;;;;;5149800;27;20066;-50
2023/12/09 09:52:09;;;;;;;9.60;1.52;;;11.80;99.90;;;;;;5149341;27;20042;-51
2023/12/09 09:54:34;;;;;;;11.15;1.55;;;11.70;99.90;;;;;;5148720;27;20094;-51
2023/12/09 09:57:03;;;;;;;8.45;1.40;;;11.60;99.90;;;;;;5149761;27;20281;-50
2023/12/09 09:59:29;;;;;;;13.25;2.58;;;11.40;99.90;;;;;;5149396;27;20207;-48
2023/12/09 10:01:55;;;;;;;7.00;1.90;;;11.60;99.90;;;;;;5131291;27;20080;-50
2023/12/09 10:04:20;;;;;;;6.32;1.40;;;11.60;99.90;;;;;;5149517;27;20027;-51
2023/12/09 10:06:46;;;;;;;8.50;1.23;;;11.70;99.90;;;;;;5148267;27;20096;-49
2023/12/09 10:09:12;;;;;;;9.88;1.48;;;11.60;99.90;;;;;;5149550;27;20066;-50
2023/12/09 10:11:37;;;;;;;6.80;1.92;;;11.60;99.90;;;;;;5148193;27;20170;-50
2023/12/09 10:14:04;;;;;;;6.55;1.77;;;11.70;99.90;;;;;;5149069;27;20031;-49
2023/12/09 10:16:29;;;;;;;8.52;1.65;;;11.80;99.90;;;;;;5149391;27;20023;-50
2023/12/09 10:18:56;;;;;;;17.13;5.35;;;11.90;99.90;;;;;;5149159;27;20015;-50
2023/12/09 10:21:22;;;;;;;28.00;13.77;;;11.90;99.90;;;;;;5148997;27;20027;-50
2023/12/09 10:23:47;;;;;;;27.80;12.13;;;11.90;99.90;;;;;;5148530;27;20235;-50
2023/12/09 10:26:13;;;;;;;36.58;23.73;;;11.80;99.90;;;;;;5147925;27;20277;-50
2023/12/09 10:28:40;;;;;;;13.52;4.75;;;11.70;99.90;;;;;;5130891;27;20038;-57
2023/12/09 10:31:07;;;;;;;7.03;5.75;;;11.60;99.90;;;;;;5147960;27;20029;-49
2023/12/09 10:33:33;;;;;;;5.97;2.33;;;11.50;99.90;;;;;;5148847;27;20281;-47
2023/12/09 10:36:00;;;;;;;12.80;3.53;;;11.40;99.90;;;;;;5148727;27;20306;-47
2023/12/09 10:38:26;;;;;;;25.33;10.27;;;11.40;99.90;;;;;;5148682;27;20037;-47
2023/12/09 10:40:53;;;;;;;18.40;6.15;;;11.40;99.90;;;;;;5147613;27;20092;-48
2023/12/09 10:43:20;;;;;;;118.63;50.10;;;11.40;99.90;;;;;;5147381;27;20257;-47
2023/12/09 10:45:45;;;;;;;28.00;10.55;;;11.40;99.90;;;;;;5148313;27;20027;-50
2023/12/09 10:48:11;;;;;;;20.45;9.75;;;11.40;99.90;;;;;;5148482;27;20218;-50
2023/12/09 10:50:39;;;;;;;19.17;7.53;;;11.40;99.90;;;;;;5148547;27;20100;-50
2023/12/09 10:53:05;;;;;;;22.05;9.68;;;11.40;99.90;;;;;;5148455;27;20044;-52
2023/12/09 10:55:31;;;;;;;11.57;3.83;;;11.40;99.90;;;;;;5130238;27;20031;-57
2023/12/09 10:57:57;;;;;;;16.08;3.17;;;11.40;99.90;;;;;;5147274;27;20049;-55
2023/12/09 11:00:24;;;;;;;14.57;5.05;;;11.40;99.90;;;;;;5148412;27;20042;-46
2023/12/09 11:02:50;;;;;;;12.45;2.70;;;11.40;99.90;;;;;;5148148;27;20242;-49
2023/12/09 11:05:16;;;;;;;14.80;3.95;;;11.40;99.90;;;;;;5148087;27;20090;-47
2023/12/09 11:07:41;;;;;;;14.98;2.97;;;11.40;99.90;;;;;;5129609;27;20081;-49
2023/12/09 11:10:08;;;;;;;18.10;3.05;;;11.30;99.90;;;;;;5148368;27;20051;-50
2023/12/09 11:12:35;;;;;;;13.73;3.00;;;11.40;99.90;;;;;;5146632;27;20050;-50
2023/12/09 11:15:13;;;;;;;20.27;3.40;;;11.40;99.90;;;;;;5147959;27;20094;-50
2023/12/09 11:17:40;;;;;;;78.93;38.25;;;11.40;99.90;;;;;;5147997;27;20035;-50
2023/12/09 11:20:14;;;;;;;57.15;24.45;;;11.40;99.90;;;;;;5147835;27;20296;-50
2023/12/09 11:22:40;;;;;;;34.75;11.52;;;11.40;99.90;;;;;;5147564;27;20035;-50
2023/12/09 11:25:08;;;;;;;44.60;17.08;;;11.30;99.90;;;;;;5145744;27;20370;-50
2023/12/09 11:27:37;;;;;;;23.98;7.45;;;11.40;99.90;;;;;;5146595;27;20094;-48
2023/12/09 11:30:03;;;;;;;43.33;19.50;;;11.30;99.90;;;;;;5148067;27;20348;-48
2023/12/09 11:32:29;;;;;;;26.20;5.82;;;11.30;99.90;;;;;;5146504;27;20031;-49
2023/12/09 11:34:57;;;;;;;33.22;10.77;;;11.30;99.90;;;;;;5146410;27;20140;-49
2023/12/09 11:37:22;;;;;;;27.17;7.03;;;11.30;99.90;;;;;;5145945;27;20180;-49
2023/12/09 11:39:48;;;;;;;34.10;11.85;;;11.30;99.90;;;;;;5146239;27;20019;-50
2023/12/09 11:42:14;;;;;;;28.17;8.85;;;11.20;99.90;;;;;;5129288;27;20257;-47
2023/12/09 11:44:39;;;;;;;58.25;20.23;;;11.30;99.90;;;;;;5147286;27;20229;-47
2023/12/09 11:47:05;;;;;;;83.93;38.63;;;11.30;99.90;;;;;;5146376;27;20059;-47
2023/12/09 11:49:31;;;;;;;29.17;12.13;;;11.30;99.90;;;;;;5146100;27;20035;-47
2023/12/09 11:51:57;;;;;;;38.05;9.73;;;11.30;99.90;;;;;;5146108;27;20023;-48
2023/12/09 11:54:22;;;;;;;24.52;9.65;;;11.30;99.90;;;;;;5145602;27;20352;-47
2023/12/09 11:56:49;;;;;;;27.08;10.18;;;11.30;99.90;;;;;;5147243;27;20027;-47
2023/12/09 11:59:14;;;;;;;29.85;5.40;;;11.30;99.90;;;;;;5147284;27;20020;-47
2023/12/09 12:01:40;;;;;;;24.75;6.28;;;11.30;99.90;;;;;;5146975;27;20082;-48
2023/12/09 12:04:06;;;;;;;24.17;5.43;;;11.30;99.90;;;;;;5147075;27;20114;-47
2023/12/09 12:06:32;;;;;;;28.45;6.72;;;11.30;99.90;;;;;;5147072;27;20257;-50
2023/12/09 12:08:58;;;;;;;39.65;6.63;;;11.30;99.90;;;;;;5146641;27;20096;-50
2023/12/09 12:11:24;;;;;;;32.65;6.65;;;11.30;99.90;;;;;;5145591;27;20039;-51
2023/12/09 12:13:50;;;;;;;26.95;5.22;;;11.30;99.90;;;;;;5145552;27;20034;-50
2023/12/09 12:16:16;;;;;;;26.02;5.68;;;11.30;99.90;;;;;;5145708;27;20100;-50
2023/12/09 12:18:41;;;;;;;26.27;3.78;;;11.30;99.90;;;;;;5145307;27;20031;-50
2023/12/09 12:21:07;;;;;;;36.92;7.05;;;11.30;99.90;;;;;;5145791;27;20154;-50
2023/12/09 12:23:33;;;;;;;23.80;4.75;;;11.30;99.90;;;;;;5145638;27;20038;-51
2023/12/09 12:25:59;;;;;;;35.83;8.65;;;11.30;99.90;;;;;;5146585;27;20127;-50
2023/12/09 12:28:25;;;;;;;73.90;34.90;;;11.40;99.90;;;;;;5146661;27;20080;-49
2023/12/09 12:30:59;;;;;;;45.90;16.38;;;11.40;99.90;;;;;;5128095;27;20253;-49
2023/12/09 12:33:26;;;;;;;45.55;24.10;;;11.40;99.90;;;;;;5128334;27;20037;-49
2023/12/09 12:35:55;;;;;;;31.25;9.00;;;11.50;99.90;;;;;;5146242;27;20027;-49
2023/12/09 12:38:21;;;;;;;25.48;4.63;;;11.40;99.90;;;;;;5128320;27;20038;-49
2023/12/09 12:40:47;;;;;;;31.33;10.18;;;11.40;99.90;;;;;;5146472;27;20253;-50